sensor_id;sensor_type;location;lat;lon;timestamp;P1;durP1;ratioP1;P2;durP2;ratioP2
14118;SDS011;7138;49.246;9.100;2023-08-06T00:00:59;4.57;;;3.22;;
14118;SDS011;7138;49.246;9.100;2023-08-06T00:03:25;6.05;;;3.47;;
14118;SDS011;7138;49.246;9.100;2023-08-06T00:05:52;6.95;;;3.28;;
14118;SDS011;7138;49.246;9.100;2023-08-06T00:08:18;6.35;;;3.13;;
14118;SDS011;7138;49.246;9.100;2023-08-06T00:10:44;5.47;;;3.42;;
14118;SDS011;7138;49.246;9.100;2023-08-06T00:13:12;5.93;;;3.40;;
14118;SDS011;7138;49.246;9.100;2023-08-06T00:15:38;7.45;;;3.47;;
14118;SDS011;7138;49.246;9.100;2023-08-06T00:18:04;5.78;;;3.45;;
14118;SDS011;7138;49.246;9.100;2023-08-06T00:20:30;6.07;;;2.97;;
14118;SDS011;7138;49.246;9.100;2023-08-06T00:22:57;5.05;;;3.25;;
14118;SDS011;7138;49.246;9.100;2023-08-06T00:25:23;7.47;;;3.70;;
14118;SDS011;7138;49.246;9.100;2023-08-06T00:27:49;4.97;;;3.28;;
14118;SDS011;7138;49.246;9.100;2023-08-06T00:30:14;5.18;;;3.13;;
14118;SDS011;7138;49.246;9.100;2023-08-06T00:32:40;4.97;;;3.15;;
14118;SDS011;7138;49.246;9.100;2023-08-06T00:35:07;5.82;;;3.20;;
14118;SDS011;7138;49.246;9.100;2023-08-06T00:37:33;7.55;;;2.95;;
14118;SDS011;7138;49.246;9.100;2023-08-06T00:40:00;7.20;;;3.10;;
14118;SDS011;7138;49.246;9.100;2023-08-06T00:42:26;6.35;;;3.15;;
14118;SDS011;7138;49.246;9.100;2023-08-06T00:44:51;5.57;;;2.70;;
14118;SDS011;7138;49.246;9.100;2023-08-06T00:47:17;4.70;;;3.17;;
14118;SDS011;7138;49.246;9.100;2023-08-06T00:49:44;5.35;;;3.22;;
14118;SDS011;7138;49.246;9.100;2023-08-06T00:52:10;5.28;;;3.00;;
14118;SDS011;7138;49.246;9.100;2023-08-06T00:54:38;7.28;;;3.13;;
14118;SDS011;7138;49.246;9.100;2023-08-06T00:57:05;5.18;;;3.30;;
14118;SDS011;7138;49.246;9.100;2023-08-06T00:59:34;5.50;;;3.05;;
14118;SDS011;7138;49.246;9.100;2023-08-06T01:02:00;6.10;;;3.08;;
14118;SDS011;7138;49.246;9.100;2023-08-06T01:04:26;6.90;;;3.00;;
14118;SDS011;7138;49.246;9.100;2023-08-06T01:06:55;6.43;;;3.30;;
14118;SDS011;7138;49.246;9.100;2023-08-06T01:09:45;5.43;;;3.10;;
14118;SDS011;7138;49.246;9.100;2023-08-06T01:12:33;6.30;;;3.03;;
14118;SDS011;7138;49.246;9.100;2023-08-06T01:15:11;6.13;;;3.30;;
14118;SDS011;7138;49.246;9.100;2023-08-06T01:17:42;7.57;;;3.42;;
14118;SDS011;7138;49.246;9.100;2023-08-06T01:20:10;5.20;;;3.20;;
14118;SDS011;7138;49.246;9.100;2023-08-06T01:22:37;7.20;;;3.47;;
14118;SDS011;7138;49.246;9.100;2023-08-06T01:25:03;5.88;;;3.65;;
14118;SDS011;7138;49.246;9.100;2023-08-06T01:27:32;5.50;;;3.40;;
14118;SDS011;7138;49.246;9.100;2023-08-06T01:30:09;9.82;;;3.40;;
14118;SDS011;7138;49.246;9.100;2023-08-06T01:32:42;6.80;;;3.58;;
14118;SDS011;7138;49.246;9.100;2023-08-06T01:35:15;7.25;;;3.28;;
14118;SDS011;7138;49.246;9.100;2023-08-06T01:37:45;6.72;;;3.60;;
14118;SDS011;7138;49.246;9.100;2023-08-06T01:40:12;5.65;;;3.60;;
14118;SDS011;7138;49.246;9.100;2023-08-06T01:42:39;5.40;;;3.40;;
14118;SDS011;7138;49.246;9.100;2023-08-06T01:45:05;5.95;;;3.45;;
14118;SDS011;7138;49.246;9.100;2023-08-06T01:47:33;7.60;;;3.42;;
14118;SDS011;7138;49.246;9.100;2023-08-06T01:49:59;6.72;;;3.40;;
14118;SDS011;7138;49.246;9.100;2023-08-06T01:52:25;5.85;;;3.45;;
14118;SDS011;7138;49.246;9.100;2023-08-06T01:54:52;5.18;;;3.42;;
14118;SDS011;7138;49.246;9.100;2023-08-06T01:57:18;7.82;;;3.80;;
14118;SDS011;7138;49.246;9.100;2023-08-06T01:59:44;4.90;;;3.47;;
14118;SDS011;7138;49.246;9.100;2023-08-06T02:02:10;5.22;;;3.15;;
14118;SDS011;7138;49.246;9.100;2023-08-06T02:04:36;5.13;;;3.17;;
14118;SDS011;7138;49.246;9.100;2023-08-06T02:07:02;5.70;;;3.15;;
14118;SDS011;7138;49.246;9.100;2023-08-06T02:09:28;5.20;;;3.42;;
14118;SDS011;7138;49.246;9.100;2023-08-06T02:11:55;11.23;;;3.67;;
14118;SDS011;7138;49.246;9.100;2023-08-06T02:14:21;10.10;;;4.10;;
14118;SDS011;7138;49.246;9.100;2023-08-06T02:16:47;6.38;;;3.88;;
14118;SDS011;7138;49.246;9.100;2023-08-06T02:19:12;7.80;;;4.20;;
14118;SDS011;7138;49.246;9.100;2023-08-06T02:21:38;7.20;;;4.03;;
14118;SDS011;7138;49.246;9.100;2023-08-06T02:24:04;6.28;;;3.60;;
14118;SDS011;7138;49.246;9.100;2023-08-06T02:26:30;7.38;;;3.83;;
14118;SDS011;7138;49.246;9.100;2023-08-06T02:28:57;5.88;;;3.95;;
14118;SDS011;7138;49.246;9.100;2023-08-06T02:31:23;6.45;;;3.85;;
14118;SDS011;7138;49.246;9.100;2023-08-06T02:33:49;6.03;;;4.18;;
14118;SDS011;7138;49.246;9.100;2023-08-06T02:36:14;5.93;;;4.05;;
14118;SDS011;7138;49.246;9.100;2023-08-06T02:38:40;5.80;;;3.70;;
14118;SDS011;7138;49.246;9.100;2023-08-06T02:41:06;6.80;;;4.07;;
14118;SDS011;7138;49.246;9.100;2023-08-06T02:43:32;7.47;;;4.35;;
14118;SDS011;7138;49.246;9.100;2023-08-06T02:45:59;5.88;;;3.67;;
14118;SDS011;7138;49.246;9.100;2023-08-06T02:48:26;6.35;;;3.88;;
14118;SDS011;7138;49.246;9.100;2023-08-06T02:50:52;6.90;;;3.72;;
14118;SDS011;7138;49.246;9.100;2023-08-06T02:55:48;6.07;;;3.63;;
14118;SDS011;7138;49.246;9.100;2023-08-06T02:58:14;5.55;;;3.65;;
14118;SDS011;7138;49.246;9.100;2023-08-06T03:00:40;6.47;;;3.58;;
14118;SDS011;7138;49.246;9.100;2023-08-06T03:03:07;7.75;;;4.03;;
14118;SDS011;7138;49.246;9.100;2023-08-06T03:05:33;5.53;;;3.50;;
14118;SDS011;7138;49.246;9.100;2023-08-06T03:08:01;4.60;;;3.13;;
14118;SDS011;7138;49.246;9.100;2023-08-06T03:10:27;5.13;;;3.55;;
14118;SDS011;7138;49.246;9.100;2023-08-06T03:12:53;6.80;;;3.80;;
14118;SDS011;7138;49.246;9.100;2023-08-06T03:15:19;5.80;;;3.38;;
14118;SDS011;7138;49.246;9.100;2023-08-06T03:17:45;5.40;;;3.58;;
14118;SDS011;7138;49.246;9.100;2023-08-06T03:20:12;7.43;;;3.15;;
14118;SDS011;7138;49.246;9.100;2023-08-06T03:22:38;6.07;;;3.97;;
14118;SDS011;7138;49.246;9.100;2023-08-06T03:25:04;5.30;;;3.05;;
14118;SDS011;7138;49.246;9.100;2023-08-06T03:27:31;6.00;;;3.28;;
14118;SDS011;7138;49.246;9.100;2023-08-06T03:29:56;5.18;;;3.60;;
14118;SDS011;7138;49.246;9.100;2023-08-06T03:32:22;5.68;;;3.63;;
14118;SDS011;7138;49.246;9.100;2023-08-06T03:34:48;6.35;;;3.50;;
14118;SDS011;7138;49.246;9.100;2023-08-06T03:37:15;5.65;;;3.50;;
14118;SDS011;7138;49.246;9.100;2023-08-06T03:39:41;4.85;;;2.92;;
14118;SDS011;7138;49.246;9.100;2023-08-06T03:42:07;4.82;;;2.90;;
14118;SDS011;7138;49.246;9.100;2023-08-06T03:44:33;5.13;;;2.78;;
14118;SDS011;7138;49.246;9.100;2023-08-06T03:46:58;8.55;;;3.05;;
14118;SDS011;7138;49.246;9.100;2023-08-06T03:49:24;5.78;;;2.95;;
14118;SDS011;7138;49.246;9.100;2023-08-06T03:51:50;5.10;;;3.03;;
14118;SDS011;7138;49.246;9.100;2023-08-06T03:54:17;6.00;;;2.95;;
14118;SDS011;7138;49.246;9.100;2023-08-06T03:56:43;5.50;;;3.17;;
14118;SDS011;7138;49.246;9.100;2023-08-06T03:59:09;5.78;;;2.53;;
14118;SDS011;7138;49.246;9.100;2023-08-06T04:01:35;8.10;;;2.50;;
14118;SDS011;7138;49.246;9.100;2023-08-06T04:04:00;4.13;;;2.50;;
14118;SDS011;7138;49.246;9.100;2023-08-06T04:06:26;5.28;;;2.13;;
14118;SDS011;7138;49.246;9.100;2023-08-06T04:08:52;4.97;;;1.88;;
14118;SDS011;7138;49.246;9.100;2023-08-06T04:11:22;4.45;;;1.80;;
14118;SDS011;7138;49.246;9.100;2023-08-06T04:13:48;4.68;;;1.85;;
14118;SDS011;7138;49.246;9.100;2023-08-06T04:16:14;5.80;;;2.38;;
14118;SDS011;7138;49.246;9.100;2023-08-06T04:18:40;4.18;;;1.38;;
14118;SDS011;7138;49.246;9.100;2023-08-06T04:21:06;7.55;;;1.70;;
14118;SDS011;7138;49.246;9.100;2023-08-06T04:23:31;5.40;;;1.73;;
14118;SDS011;7138;49.246;9.100;2023-08-06T04:25:57;5.32;;;1.77;;
14118;SDS011;7138;49.246;9.100;2023-08-06T04:28:25;5.15;;;1.77;;
14118;SDS011;7138;49.246;9.100;2023-08-06T04:30:51;4.18;;;1.67;;
14118;SDS011;7138;49.246;9.100;2023-08-06T04:33:18;5.20;;;1.90;;
14118;SDS011;7138;49.246;9.100;2023-08-06T04:35:45;7.45;;;1.65;;
14118;SDS011;7138;49.246;9.100;2023-08-06T04:38:10;3.90;;;1.40;;
14118;SDS011;7138;49.246;9.100;2023-08-06T04:40:36;5.53;;;1.40;;
14118;SDS011;7138;49.246;9.100;2023-08-06T04:43:02;4.35;;;1.45;;
14118;SDS011;7138;49.246;9.100;2023-08-06T04:45:29;7.50;;;2.00;;
14118;SDS011;7138;49.246;9.100;2023-08-06T04:47:55;6.53;;;1.80;;
14118;SDS011;7138;49.246;9.100;2023-08-06T04:50:21;5.82;;;1.40;;
14118;SDS011;7138;49.246;9.100;2023-08-06T04:52:47;6.88;;;1.60;;
14118;SDS011;7138;49.246;9.100;2023-08-06T04:55:13;4.57;;;1.38;;
14118;SDS011;7138;49.246;9.100;2023-08-06T04:57:39;5.63;;;1.45;;
14118;SDS011;7138;49.246;9.100;2023-08-06T05:00:05;4.43;;;1.20;;
14118;SDS011;7138;49.246;9.100;2023-08-06T05:02:34;7.00;;;1.38;;
14118;SDS011;7138;49.246;9.100;2023-08-06T05:05:03;7.00;;;1.45;;
14118;SDS011;7138;49.246;9.100;2023-08-06T05:07:29;2.60;;;0.93;;
14118;SDS011;7138;49.246;9.100;2023-08-06T05:09:55;4.57;;;1.10;;
14118;SDS011;7138;49.246;9.100;2023-08-06T05:12:21;3.95;;;1.10;;
14118;SDS011;7138;49.246;9.100;2023-08-06T05:14:47;7.65;;;1.40;;
14118;SDS011;7138;49.246;9.100;2023-08-06T05:17:13;5.28;;;1.25;;
14118;SDS011;7138;49.246;9.100;2023-08-06T05:19:40;4.00;;;0.88;;
14118;SDS011;7138;49.246;9.100;2023-08-06T05:22:06;4.90;;;1.70;;
14118;SDS011;7138;49.246;9.100;2023-08-06T05:24:32;5.05;;;1.20;;
14118;SDS011;7138;49.246;9.100;2023-08-06T05:26:57;3.65;;;0.90;;
14118;SDS011;7138;49.246;9.100;2023-08-06T05:29:23;6.43;;;1.17;;
14118;SDS011;7138;49.246;9.100;2023-08-06T05:31:49;4.38;;;0.90;;
14118;SDS011;7138;49.246;9.100;2023-08-06T05:34:15;5.53;;;1.08;;
14118;SDS011;7138;49.246;9.100;2023-08-06T05:36:42;3.92;;;1.00;;
14118;SDS011;7138;49.246;9.100;2023-08-06T05:39:08;3.92;;;1.30;;
14118;SDS011;7138;49.246;9.100;2023-08-06T05:41:34;5.50;;;0.98;;
14118;SDS011;7138;49.246;9.100;2023-08-06T05:43:59;5.80;;;1.27;;
14118;SDS011;7138;49.246;9.100;2023-08-06T05:46:25;5.65;;;0.98;;
14118;SDS011;7138;49.246;9.100;2023-08-06T05:48:51;3.78;;;1.08;;
14118;SDS011;7138;49.246;9.100;2023-08-06T05:51:17;4.10;;;1.02;;
14118;SDS011;7138;49.246;9.100;2023-08-06T05:53:44;5.70;;;1.30;;
14118;SDS011;7138;49.246;9.100;2023-08-06T05:56:11;4.57;;;0.93;;
14118;SDS011;7138;49.246;9.100;2023-08-06T05:58:37;7.93;;;1.10;;
14118;SDS011;7138;49.246;9.100;2023-08-06T06:01:03;3.92;;;1.15;;
14118;SDS011;7138;49.246;9.100;2023-08-06T06:03:29;5.20;;;1.00;;
14118;SDS011;7138;49.246;9.100;2023-08-06T06:05:55;4.95;;;0.80;;
14118;SDS011;7138;49.246;9.100;2023-08-06T06:08:21;3.42;;;1.00;;
14118;SDS011;7138;49.246;9.100;2023-08-06T06:10:48;3.97;;;0.80;;
14118;SDS011;7138;49.246;9.100;2023-08-06T06:13:14;5.80;;;1.10;;
14118;SDS011;7138;49.246;9.100;2023-08-06T06:15:39;4.22;;;1.10;;
14118;SDS011;7138;49.246;9.100;2023-08-06T06:18:05;3.60;;;0.70;;
14118;SDS011;7138;49.246;9.100;2023-08-06T06:20:31;3.90;;;0.77;;
14118;SDS011;7138;49.246;9.100;2023-08-06T06:23:01;4.40;;;0.88;;
14118;SDS011;7138;49.246;9.100;2023-08-06T06:25:27;4.85;;;1.08;;
14118;SDS011;7138;49.246;9.100;2023-08-06T06:27:54;5.28;;;1.08;;
14118;SDS011;7138;49.246;9.100;2023-08-06T06:30:20;4.05;;;0.80;;
14118;SDS011;7138;49.246;9.100;2023-08-06T06:32:46;3.35;;;0.55;;
14118;SDS011;7138;49.246;9.100;2023-08-06T06:35:12;3.45;;;0.80;;
14118;SDS011;7138;49.246;9.100;2023-08-06T06:37:38;4.30;;;0.88;;
14118;SDS011;7138;49.246;9.100;2023-08-06T06:40:05;4.75;;;0.85;;
14118;SDS011;7138;49.246;9.100;2023-08-06T06:42:32;3.47;;;0.82;;
14118;SDS011;7138;49.246;9.100;2023-08-06T06:44:59;3.20;;;0.70;;
14118;SDS011;7138;49.246;9.100;2023-08-06T06:47:25;3.72;;;0.70;;
14118;SDS011;7138;49.246;9.100;2023-08-06T06:49:51;5.05;;;0.80;;
14118;SDS011;7138;49.246;9.100;2023-08-06T06:52:17;2.22;;;0.63;;
14118;SDS011;7138;49.246;9.100;2023-08-06T06:54:43;4.53;;;1.40;;
14118;SDS011;7138;49.246;9.100;2023-08-06T06:57:08;2.38;;;0.50;;
14118;SDS011;7138;49.246;9.100;2023-08-06T06:59:34;2.65;;;0.38;;
14118;SDS011;7138;49.246;9.100;2023-08-06T07:02:01;2.47;;;0.73;;
14118;SDS011;7138;49.246;9.100;2023-08-06T07:04:28;4.82;;;0.60;;
14118;SDS011;7138;49.246;9.100;2023-08-06T07:06:53;3.17;;;0.60;;
14118;SDS011;7138;49.246;9.100;2023-08-06T07:09:19;2.08;;;0.60;;
14118;SDS011;7138;49.246;9.100;2023-08-06T07:11:45;3.75;;;0.60;;
14118;SDS011;7138;49.246;9.100;2023-08-06T07:14:11;3.25;;;0.50;;
14118;SDS011;7138;49.246;9.100;2023-08-06T07:16:37;2.42;;;0.60;;
14118;SDS011;7138;49.246;9.100;2023-08-06T07:19:04;1.75;;;0.50;;
14118;SDS011;7138;49.246;9.100;2023-08-06T07:21:30;3.78;;;0.60;;
14118;SDS011;7138;49.246;9.100;2023-08-06T07:23:57;1.90;;;0.60;;
14118;SDS011;7138;49.246;9.100;2023-08-06T07:26:24;1.25;;;0.28;;
14118;SDS011;7138;49.246;9.100;2023-08-06T07:28:50;2.25;;;0.35;;
14118;SDS011;7138;49.246;9.100;2023-08-06T07:31:16;1.60;;;0.30;;
14118;SDS011;7138;49.246;9.100;2023-08-06T07:33:42;1.08;;;0.30;;
14118;SDS011;7138;49.246;9.100;2023-08-06T07:36:10;2.22;;;0.32;;
14118;SDS011;7138;49.246;9.100;2023-08-06T07:38:37;1.85;;;0.20;;
14118;SDS011;7138;49.246;9.100;2023-08-06T07:41:04;2.10;;;0.30;;
14118;SDS011;7138;49.246;9.100;2023-08-06T07:43:30;4.72;;;0.82;;
14118;SDS011;7138;49.246;9.100;2023-08-06T07:45:57;2.03;;;0.40;;
14118;SDS011;7138;49.246;9.100;2023-08-06T07:48:24;2.22;;;0.22;;
14118;SDS011;7138;49.246;9.100;2023-08-06T07:50:51;2.20;;;0.38;;
14118;SDS011;7138;49.246;9.100;2023-08-06T07:53:19;2.20;;;0.60;;
14118;SDS011;7138;49.246;9.100;2023-08-06T07:55:47;0.82;;;0.20;;
14118;SDS011;7138;49.246;9.100;2023-08-06T07:58:15;3.40;;;0.50;;
14118;SDS011;7138;49.246;9.100;2023-08-06T08:00:41;1.63;;;0.30;;
14118;SDS011;7138;49.246;9.100;2023-08-06T08:03:10;1.35;;;0.20;;
14118;SDS011;7138;49.246;9.100;2023-08-06T08:05:37;1.98;;;0.40;;
14118;SDS011;7138;49.246;9.100;2023-08-06T08:08:03;1.23;;;0.30;;
14118;SDS011;7138;49.246;9.100;2023-08-06T08:10:30;3.45;;;0.40;;
14118;SDS011;7138;49.246;9.100;2023-08-06T08:12:56;1.33;;;0.35;;
14118;SDS011;7138;49.246;9.100;2023-08-06T08:15:22;2.60;;;0.30;;
14118;SDS011;7138;49.246;9.100;2023-08-06T08:17:48;1.52;;;0.30;;
14118;SDS011;7138;49.246;9.100;2023-08-06T08:20:14;1.42;;;0.30;;
14118;SDS011;7138;49.246;9.100;2023-08-06T08:22:41;1.38;;;0.32;;
14118;SDS011;7138;49.246;9.100;2023-08-06T08:25:07;0.40;;;0.20;;
14118;SDS011;7138;49.246;9.100;2023-08-06T08:27:34;1.92;;;0.30;;
14118;SDS011;7138;49.246;9.100;2023-08-06T08:30:00;2.42;;;0.40;;
14118;SDS011;7138;49.246;9.100;2023-08-06T08:32:26;2.40;;;0.38;;
14118;SDS011;7138;49.246;9.100;2023-08-06T08:34:52;1.40;;;0.28;;
14118;SDS011;7138;49.246;9.100;2023-08-06T08:37:18;1.42;;;0.30;;
14118;SDS011;7138;49.246;9.100;2023-08-06T08:39:44;1.80;;;0.30;;
14118;SDS011;7138;49.246;9.100;2023-08-06T08:42:10;2.67;;;0.45;;
14118;SDS011;7138;49.246;9.100;2023-08-06T08:44:37;0.80;;;0.20;;
14118;SDS011;7138;49.246;9.100;2023-08-06T08:47:06;0.90;;;0.30;;
14118;SDS011;7138;49.246;9.100;2023-08-06T08:49:34;1.40;;;0.20;;
14118;SDS011;7138;49.246;9.100;2023-08-06T08:52:02;0.65;;;0.20;;
14118;SDS011;7138;49.246;9.100;2023-08-06T08:54:33;0.82;;;0.30;;
14118;SDS011;7138;49.246;9.100;2023-08-06T08:57:00;0.95;;;0.30;;
14118;SDS011;7138;49.246;9.100;2023-08-06T08:59:27;0.75;;;0.30;;
14118;SDS011;7138;49.246;9.100;2023-08-06T09:01:55;0.85;;;0.30;;
14118;SDS011;7138;49.246;9.100;2023-08-06T09:04:21;1.90;;;0.30;;
14118;SDS011;7138;49.246;9.100;2023-08-06T09:06:50;1.52;;;0.20;;
14118;SDS011;7138;49.246;9.100;2023-08-06T09:09:20;0.65;;;0.20;;
14118;SDS011;7138;49.246;9.100;2023-08-06T09:11:51;0.85;;;0.10;;
14118;SDS011;7138;49.246;9.100;2023-08-06T09:14:24;1.55;;;0.22;;
14118;SDS011;7138;49.246;9.100;2023-08-06T09:16:51;0.98;;;0.10;;
14118;SDS011;7138;49.246;9.100;2023-08-06T09:19:19;1.00;;;0.10;;
14118;SDS011;7138;49.246;9.100;2023-08-06T09:21:45;0.13;;;0.03;;
14118;SDS011;7138;49.246;9.100;2023-08-06T09:24:14;1.30;;;0.07;;
14118;SDS011;7138;49.246;9.100;2023-08-06T09:26:42;0.52;;;0.10;;
14118;SDS011;7138;49.246;9.100;2023-08-06T09:29:09;0.83;;;0.10;;
14118;SDS011;7138;49.246;9.100;2023-08-06T09:31:40;0.80;;;0.20;;
14118;SDS011;7138;49.246;9.100;2023-08-06T09:34:10;0.00;;;0.00;;
14118;SDS011;7138;49.246;9.100;2023-08-06T09:36:40;0.77;;;0.10;;
14118;SDS011;7138;49.246;9.100;2023-08-06T09:39:12;0.43;;;0.10;;
14118;SDS011;7138;49.246;9.100;2023-08-06T09:41:39;1.27;;;0.30;;
14118;SDS011;7138;49.246;9.100;2023-08-06T09:44:05;0.70;;;0.20;;
14118;SDS011;7138;49.246;9.100;2023-08-06T09:46:42;0.80;;;0.22;;
14118;SDS011;7138;49.246;9.100;2023-08-06T09:49:12;0.82;;;0.30;;
14118;SDS011;7138;49.246;9.100;2023-08-06T09:51:38;1.50;;;0.20;;
14118;SDS011;7138;49.246;9.100;2023-08-06T09:54:06;1.63;;;0.40;;
14118;SDS011;7138;49.246;9.100;2023-08-06T09:56:37;2.55;;;0.40;;
14118;SDS011;7138;49.246;9.100;2023-08-06T09:59:03;2.65;;;0.30;;
14118;SDS011;7138;49.246;9.100;2023-08-06T10:01:34;1.42;;;0.38;;
14118;SDS011;7138;49.246;9.100;2023-08-06T10:04:01;1.05;;;0.20;;
14118;SDS011;7138;49.246;9.100;2023-08-06T10:06:29;1.42;;;0.35;;
14118;SDS011;7138;49.246;9.100;2023-08-06T10:09:00;2.25;;;0.40;;
14118;SDS011;7138;49.246;9.100;2023-08-06T10:11:26;0.40;;;0.20;;
14118;SDS011;7138;49.246;9.100;2023-08-06T10:13:57;1.05;;;0.30;;
14118;SDS011;7138;49.246;9.100;2023-08-06T10:16:31;1.85;;;0.20;;
14118;SDS011;7138;49.246;9.100;2023-08-06T10:18:59;1.67;;;0.25;;
14118;SDS011;7138;49.246;9.100;2023-08-06T10:21:27;0.85;;;0.20;;
14118;SDS011;7138;49.246;9.100;2023-08-06T10:23:55;0.77;;;0.20;;
14118;SDS011;7138;49.246;9.100;2023-08-06T10:26:25;0.45;;;0.10;;
14118;SDS011;7138;49.246;9.100;2023-08-06T10:28:53;0.55;;;0.17;;
14118;SDS011;7138;49.246;9.100;2023-08-06T10:31:19;1.33;;;0.28;;
14118;SDS011;7138;49.246;9.100;2023-08-06T10:33:45;0.77;;;0.20;;
14118;SDS011;7138;49.246;9.100;2023-08-06T10:36:13;0.52;;;0.20;;
14118;SDS011;7138;49.246;9.100;2023-08-06T10:38:46;2.25;;;0.30;;
14118;SDS011;7138;49.246;9.100;2023-08-06T10:41:18;0.65;;;0.20;;
14118;SDS011;7138;49.246;9.100;2023-08-06T10:43:50;0.55;;;0.20;;
14118;SDS011;7138;49.246;9.100;2023-08-06T10:46:23;0.95;;;0.30;;
14118;SDS011;7138;49.246;9.100;2023-08-06T10:48:52;1.20;;;0.30;;
14118;SDS011;7138;49.246;9.100;2023-08-06T10:51:18;1.15;;;0.30;;
14118;SDS011;7138;49.246;9.100;2023-08-06T10:53:44;1.00;;;0.30;;
14118;SDS011;7138;49.246;9.100;2023-08-06T10:56:12;2.47;;;0.40;;
14118;SDS011;7138;49.246;9.100;2023-08-06T10:58:39;1.23;;;0.30;;
14118;SDS011;7138;49.246;9.100;2023-08-06T11:01:06;1.17;;;0.40;;
14118;SDS011;7138;49.246;9.100;2023-08-06T11:03:33;0.73;;;0.20;;
14118;SDS011;7138;49.246;9.100;2023-08-06T11:05:59;1.15;;;0.40;;
14118;SDS011;7138;49.246;9.100;2023-08-06T11:08:25;1.75;;;0.30;;
14118;SDS011;7138;49.246;9.100;2023-08-06T11:10:52;2.15;;;0.40;;
14118;SDS011;7138;49.246;9.100;2023-08-06T11:13:19;1.67;;;0.50;;
14118;SDS011;7138;49.246;9.100;2023-08-06T11:15:46;2.70;;;0.40;;
14118;SDS011;7138;49.246;9.100;2023-08-06T11:18:14;1.13;;;0.50;;
14118;SDS011;7138;49.246;9.100;2023-08-06T11:20:41;1.10;;;0.40;;
14118;SDS011;7138;49.246;9.100;2023-08-06T11:23:06;1.08;;;0.38;;
14118;SDS011;7138;49.246;9.100;2023-08-06T11:25:36;1.00;;;0.30;;
14118;SDS011;7138;49.246;9.100;2023-08-06T11:28:03;1.52;;;0.55;;
14118;SDS011;7138;49.246;9.100;2023-08-06T11:30:28;1.50;;;0.50;;
14118;SDS011;7138;49.246;9.100;2023-08-06T11:32:54;1.30;;;0.50;;
14118;SDS011;7138;49.246;9.100;2023-08-06T11:35:23;1.15;;;0.50;;
14118;SDS011;7138;49.246;9.100;2023-08-06T11:37:49;1.05;;;0.40;;
14118;SDS011;7138;49.246;9.100;2023-08-06T11:40:15;1.55;;;0.60;;
14118;SDS011;7138;49.246;9.100;2023-08-06T11:42:42;1.80;;;0.60;;
14118;SDS011;7138;49.246;9.100;2023-08-06T11:45:08;2.13;;;0.70;;
14118;SDS011;7138;49.246;9.100;2023-08-06T11:47:37;2.40;;;0.80;;
14118;SDS011;7138;49.246;9.100;2023-08-06T11:50:04;2.15;;;0.80;;
14118;SDS011;7138;49.246;9.100;2023-08-06T11:52:32;2.92;;;0.90;;
14118;SDS011;7138;49.246;9.100;2023-08-06T11:55:02;3.10;;;1.30;;
14118;SDS011;7138;49.246;9.100;2023-08-06T11:57:37;2.83;;;0.90;;
14118;SDS011;7138;49.246;9.100;2023-08-06T12:00:05;2.47;;;0.80;;
14118;SDS011;7138;49.246;9.100;2023-08-06T12:02:33;2.67;;;0.77;;
14118;SDS011;7138;49.246;9.100;2023-08-06T12:05:03;3.33;;;0.80;;
14118;SDS011;7138;49.246;9.100;2023-08-06T12:07:37;3.75;;;1.00;;
14118;SDS011;7138;49.246;9.100;2023-08-06T12:10:07;3.67;;;1.15;;
14118;SDS011;7138;49.246;9.100;2023-08-06T12:12:33;2.80;;;0.95;;
14118;SDS011;7138;49.246;9.100;2023-08-06T12:15:00;5.30;;;1.00;;
14118;SDS011;7138;49.246;9.100;2023-08-06T12:17:26;3.72;;;1.30;;
14118;SDS011;7138;49.246;9.100;2023-08-06T12:19:52;3.45;;;1.30;;
14118;SDS011;7138;49.246;9.100;2023-08-06T12:22:18;3.80;;;1.40;;
14118;SDS011;7138;49.246;9.100;2023-08-06T12:24:46;6.03;;;1.60;;
14118;SDS011;7138;49.246;9.100;2023-08-06T12:27:12;4.75;;;1.50;;
14118;SDS011;7138;49.246;9.100;2023-08-06T12:29:40;3.63;;;1.52;;
14118;SDS011;7138;49.246;9.100;2023-08-06T12:32:08;3.63;;;1.52;;
14118;SDS011;7138;49.246;9.100;2023-08-06T12:34:34;5.53;;;1.65;;
14118;SDS011;7138;49.246;9.100;2023-08-06T12:36:59;4.25;;;1.60;;
14118;SDS011;7138;49.246;9.100;2023-08-06T12:39:25;3.75;;;1.45;;
14118;SDS011;7138;49.246;9.100;2023-08-06T12:41:55;8.00;;;1.52;;
14118;SDS011;7138;49.246;9.100;2023-08-06T12:44:22;4.30;;;1.42;;
14118;SDS011;7138;49.246;9.100;2023-08-06T12:46:48;4.35;;;1.63;;
14118;SDS011;7138;49.246;9.100;2023-08-06T12:49:14;3.80;;;1.42;;
14118;SDS011;7138;49.246;9.100;2023-08-06T12:51:40;5.53;;;1.98;;
14118;SDS011;7138;49.246;9.100;2023-08-06T12:54:05;4.35;;;2.03;;
14118;SDS011;7138;49.246;9.100;2023-08-06T12:56:31;4.95;;;1.77;;
14118;SDS011;7138;49.246;9.100;2023-08-06T12:58:58;4.55;;;1.83;;
14118;SDS011;7138;49.246;9.100;2023-08-06T13:01:24;5.85;;;1.90;;
14118;SDS011;7138;49.246;9.100;2023-08-06T13:03:50;5.85;;;1.90;;
14118;SDS011;7138;49.246;9.100;2023-08-06T13:06:16;3.92;;;1.77;;
14118;SDS011;7138;49.246;9.100;2023-08-06T13:08:42;3.92;;;1.83;;
14118;SDS011;7138;49.246;9.100;2023-08-06T13:11:08;5.03;;;1.83;;
14118;SDS011;7138;49.246;9.100;2023-08-06T13:13:35;3.58;;;1.80;;
14118;SDS011;7138;49.246;9.100;2023-08-06T13:16:02;3.95;;;1.90;;
14118;SDS011;7138;49.246;9.100;2023-08-06T13:18:28;5.53;;;1.92;;
14118;SDS011;7138;49.246;9.100;2023-08-06T13:20:54;3.72;;;1.75;;
14118;SDS011;7138;49.246;9.100;2023-08-06T13:23:20;4.57;;;2.03;;
14118;SDS011;7138;49.246;9.100;2023-08-06T13:25:46;4.28;;;1.88;;
14118;SDS011;7138;49.246;9.100;2023-08-06T13:28:12;3.97;;;1.85;;
14118;SDS011;7138;49.246;9.100;2023-08-06T13:30:41;5.13;;;1.70;;
14118;SDS011;7138;49.246;9.100;2023-08-06T13:33:11;4.38;;;1.63;;
14118;SDS011;7138;49.246;9.100;2023-08-06T13:35:37;4.40;;;2.00;;
14118;SDS011;7138;49.246;9.100;2023-08-06T13:38:03;4.22;;;1.50;;
14118;SDS011;7138;49.246;9.100;2023-08-06T13:40:29;6.25;;;1.90;;
14118;SDS011;7138;49.246;9.100;2023-08-06T13:42:58;5.25;;;1.85;;
14118;SDS011;7138;49.246;9.100;2023-08-06T13:45:24;4.70;;;1.83;;
14118;SDS011;7138;49.246;9.100;2023-08-06T13:47:49;6.03;;;1.70;;
14118;SDS011;7138;49.246;9.100;2023-08-06T13:50:17;4.18;;;1.90;;
14118;SDS011;7138;49.246;9.100;2023-08-06T13:52:44;4.90;;;1.85;;
14118;SDS011;7138;49.246;9.100;2023-08-06T13:55:10;3.45;;;1.50;;
14118;SDS011;7138;49.246;9.100;2023-08-06T13:57:35;4.55;;;1.48;;
14118;SDS011;7138;49.246;9.100;2023-08-06T14:00:01;4.00;;;1.42;;
14118;SDS011;7138;49.246;9.100;2023-08-06T14:02:28;4.95;;;1.33;;
14118;SDS011;7138;49.246;9.100;2023-08-06T14:04:54;4.32;;;1.20;;
14118;SDS011;7138;49.246;9.100;2023-08-06T14:07:21;3.67;;;0.93;;
14118;SDS011;7138;49.246;9.100;2023-08-06T14:09:47;3.42;;;0.90;;
14118;SDS011;7138;49.246;9.100;2023-08-06T14:12:14;2.85;;;0.93;;
14118;SDS011;7138;49.246;9.100;2023-08-06T14:14:40;2.95;;;1.00;;
14118;SDS011;7138;49.246;9.100;2023-08-06T14:17:06;3.15;;;0.88;;
14118;SDS011;7138;49.246;9.100;2023-08-06T14:19:32;2.28;;;0.80;;
14118;SDS011;7138;49.246;9.100;2023-08-06T14:21:57;2.30;;;0.80;;
14118;SDS011;7138;49.246;9.100;2023-08-06T14:24:25;2.83;;;0.90;;
14118;SDS011;7138;49.246;9.100;2023-08-06T14:26:50;4.25;;;1.02;;
14118;SDS011;7138;49.246;9.100;2023-08-06T14:29:16;2.60;;;1.05;;
14118;SDS011;7138;49.246;9.100;2023-08-06T14:31:42;3.78;;;1.08;;
14118;SDS011;7138;49.246;9.100;2023-08-06T14:34:08;2.67;;;0.85;;
14118;SDS011;7138;49.246;9.100;2023-08-06T14:36:34;2.03;;;0.82;;
14118;SDS011;7138;49.246;9.100;2023-08-06T14:39:00;3.05;;;0.80;;
14118;SDS011;7138;49.246;9.100;2023-08-06T14:41:27;2.83;;;0.95;;
14118;SDS011;7138;49.246;9.100;2023-08-06T14:43:53;2.92;;;0.85;;
14118;SDS011;7138;49.246;9.100;2023-08-06T14:46:19;2.97;;;0.80;;
14118;SDS011;7138;49.246;9.100;2023-08-06T14:48:45;2.13;;;0.85;;
14118;SDS011;7138;49.246;9.100;2023-08-06T14:51:11;2.63;;;1.00;;
14118;SDS011;7138;49.246;9.100;2023-08-06T14:53:36;3.53;;;0.90;;
14118;SDS011;7138;49.246;9.100;2023-08-06T14:56:02;2.88;;;0.80;;
14118;SDS011;7138;49.246;9.100;2023-08-06T14:58:30;3.40;;;0.70;;
14118;SDS011;7138;49.246;9.100;2023-08-06T15:00:55;2.70;;;0.90;;